sensor_id;sensor_type;location;lat;lon;timestamp;P1;durP1;ratioP1;P2;durP2;ratioP2
58768;SDS011;44536;47.474;19.056;2022-08-24T00:02:10;7.75;;;4.68;;
58768;SDS011;44536;47.474;19.056;2022-08-24T00:05:13;9.10;;;5.60;;
58768;SDS011;44536;47.474;19.056;2022-08-24T00:08:15;7.90;;;5.03;;
58768;SDS011;44536;47.474;19.056;2022-08-24T00:11:20;7.97;;;4.93;;
58768;SDS011;44536;47.474;19.056;2022-08-24T00:14:23;11.00;;;5.72;;
58768;SDS011;44536;47.474;19.056;2022-08-24T00:17:25;8.07;;;4.72;;
58768;SDS011;44536;47.474;19.056;2022-08-24T00:20:27;7.55;;;4.55;;
58768;SDS011;44536;47.474;19.056;2022-08-24T00:23:30;7.18;;;4.00;;
58768;SDS011;44536;47.474;19.056;2022-08-24T00:26:32;9.23;;;4.35;;
58768;SDS011;44536;47.474;19.056;2022-08-24T00:29:36;8.30;;;4.93;;
58768;SDS011;44536;47.474;19.056;2022-08-24T00:32:39;11.63;;;4.70;;
58768;SDS011;44536;47.474;19.056;2022-08-24T00:35:42;7.53;;;3.92;;
58768;SDS011;44536;47.474;19.056;2022-08-24T00:38:44;9.15;;;5.43;;
58768;SDS011;44536;47.474;19.056;2022-08-24T00:41:47;9.10;;;5.75;;
58768;SDS011;44536;47.474;19.056;2022-08-24T00:44:51;9.07;;;4.18;;
58768;SDS011;44536;47.474;19.056;2022-08-24T00:47:55;8.77;;;5.72;;
58768;SDS011;44536;47.474;19.056;2022-08-24T00:51:12;8.88;;;4.87;;
58768;SDS011;44536;47.474;19.056;2022-08-24T00:54:27;7.25;;;4.18;;
58768;SDS011;44536;47.474;19.056;2022-08-24T00:57:33;7.30;;;4.10;;
58768;SDS011;44536;47.474;19.056;2022-08-24T01:00:41;29.10;;;6.87;;
58768;SDS011;44536;47.474;19.056;2022-08-24T01:03:49;13.07;;;5.43;;
58768;SDS011;44536;47.474;19.056;2022-08-24T01:06:58;8.00;;;4.80;;
58768;SDS011;44536;47.474;19.056;2022-08-24T01:10:01;9.45;;;4.60;;
58768;SDS011;44536;47.474;19.056;2022-08-24T01:13:08;7.60;;;4.62;;
58768;SDS011;44536;47.474;19.056;2022-08-24T01:16:13;6.93;;;3.72;;
58768;SDS011;44536;47.474;19.056;2022-08-24T01:19:38;8.38;;;4.95;;
58768;SDS011;44536;47.474;19.056;2022-08-24T01:26:15;7.75;;;4.37;;
58768;SDS011;44536;47.474;19.056;2022-08-24T01:29:22;10.32;;;4.97;;
58768;SDS011;44536;47.474;19.056;2022-08-24T01:32:28;9.02;;;5.03;;
58768;SDS011;44536;47.474;19.056;2022-08-24T01:35:31;7.85;;;4.40;;
58768;SDS011;44536;47.474;19.056;2022-08-24T01:38:36;6.97;;;3.95;;
58768;SDS011;44536;47.474;19.056;2022-08-24T01:41:38;8.75;;;4.62;;
58768;SDS011;44536;47.474;19.056;2022-08-24T01:44:42;7.07;;;3.62;;
58768;SDS011;44536;47.474;19.056;2022-08-24T01:47:46;8.70;;;5.20;;
58768;SDS011;44536;47.474;19.056;2022-08-24T01:50:49;7.75;;;4.35;;
58768;SDS011;44536;47.474;19.056;2022-08-24T01:53:51;9.25;;;5.95;;
58768;SDS011;44536;47.474;19.056;2022-08-24T01:56:55;8.02;;;4.65;;
58768;SDS011;44536;47.474;19.056;2022-08-24T01:59:57;7.43;;;4.10;;
58768;SDS011;44536;47.474;19.056;2022-08-24T02:03:00;7.97;;;4.62;;
58768;SDS011;44536;47.474;19.056;2022-08-24T02:06:04;7.37;;;4.65;;
58768;SDS011;44536;47.474;19.056;2022-08-24T02:09:07;8.40;;;4.75;;
58768;SDS011;44536;47.474;19.056;2022-08-24T02:12:09;8.25;;;4.22;;
58768;SDS011;44536;47.474;19.056;2022-08-24T02:15:12;9.32;;;5.72;;
58768;SDS011;44536;47.474;19.056;2022-08-24T02:18:15;9.10;;;4.80;;
58768;SDS011;44536;47.474;19.056;2022-08-24T02:21:17;8.60;;;5.13;;
58768;SDS011;44536;47.474;19.056;2022-08-24T02:24:20;8.07;;;4.37;;
58768;SDS011;44536;47.474;19.056;2022-08-24T02:27:23;8.10;;;4.90;;
58768;SDS011;44536;47.474;19.056;2022-08-24T02:30:26;8.52;;;4.50;;
58768;SDS011;44536;47.474;19.056;2022-08-24T02:33:30;8.25;;;4.15;;
58768;SDS011;44536;47.474;19.056;2022-08-24T02:36:33;9.70;;;5.90;;
58768;SDS011;44536;47.474;19.056;2022-08-24T02:39:36;8.45;;;4.95;;
58768;SDS011;44536;47.474;19.056;2022-08-24T02:42:39;7.37;;;4.50;;
58768;SDS011;44536;47.474;19.056;2022-08-24T02:45:44;8.20;;;5.50;;
58768;SDS011;44536;47.474;19.056;2022-08-24T02:48:52;8.43;;;4.57;;
58768;SDS011;44536;47.474;19.056;2022-08-24T02:52:12;9.25;;;4.95;;
58768;SDS011;44536;47.474;19.056;2022-08-24T02:55:16;8.50;;;5.50;;
58768;SDS011;44536;47.474;19.056;2022-08-24T02:58:21;8.02;;;4.85;;
58768;SDS011;44536;47.474;19.056;2022-08-24T03:01:25;8.68;;;5.35;;
58768;SDS011;44536;47.474;19.056;2022-08-24T03:04:31;8.35;;;5.50;;
58768;SDS011;44536;47.474;19.056;2022-08-24T03:07:34;10.35;;;4.68;;
58768;SDS011;44536;47.474;19.056;2022-08-24T03:10:37;9.85;;;5.85;;
58768;SDS011;44536;47.474;19.056;2022-08-24T03:13:40;8.38;;;4.72;;
58768;SDS011;44536;47.474;19.056;2022-08-24T03:16:43;8.63;;;5.63;;
58768;SDS011;44536;47.474;19.056;2022-08-24T03:19:46;7.67;;;4.13;;
58768;SDS011;44536;47.474;19.056;2022-08-24T03:22:48;8.57;;;5.05;;
58768;SDS011;44536;47.474;19.056;2022-08-24T03:25:52;9.68;;;5.62;;
58768;SDS011;44536;47.474;19.056;2022-08-24T03:28:55;8.60;;;4.80;;
58768;SDS011;44536;47.474;19.056;2022-08-24T03:32:00;9.00;;;4.62;;
58768;SDS011;44536;47.474;19.056;2022-08-24T03:35:03;8.95;;;4.95;;
58768;SDS011;44536;47.474;19.056;2022-08-24T03:38:06;7.87;;;4.78;;
58768;SDS011;44536;47.474;19.056;2022-08-24T03:41:08;9.75;;;5.32;;
58768;SDS011;44536;47.474;19.056;2022-08-24T03:44:12;9.20;;;4.85;;
58768;SDS011;44536;47.474;19.056;2022-08-24T03:47:16;9.95;;;5.47;;
58768;SDS011;44536;47.474;19.056;2022-08-24T03:50:20;9.35;;;4.97;;
58768;SDS011;44536;47.474;19.056;2022-08-24T03:53:23;9.20;;;5.80;;
58768;SDS011;44536;47.474;19.056;2022-08-24T03:56:26;9.45;;;5.25;;
58768;SDS011;44536;47.474;19.056;2022-08-24T03:59:29;9.52;;;5.18;;
58768;SDS011;44536;47.474;19.056;2022-08-24T04:02:32;8.63;;;5.68;;
58768;SDS011;44536;47.474;19.056;2022-08-24T04:05:35;8.47;;;5.30;;
58768;SDS011;44536;47.474;19.056;2022-08-24T04:08:40;9.43;;;4.70;;
58768;SDS011;44536;47.474;19.056;2022-08-24T04:11:44;9.15;;;4.55;;
58768;SDS011;44536;47.474;19.056;2022-08-24T04:14:49;9.23;;;5.00;;
58768;SDS011;44536;47.474;19.056;2022-08-24T04:17:52;12.35;;;5.68;;
58768;SDS011;44536;47.474;19.056;2022-08-24T04:20:55;10.80;;;5.90;;
58768;SDS011;44536;47.474;19.056;2022-08-24T04:23:59;10.50;;;4.90;;
58768;SDS011;44536;47.474;19.056;2022-08-24T04:27:03;10.52;;;4.97;;
58768;SDS011;44536;47.474;19.056;2022-08-24T04:30:07;11.05;;;5.37;;
58768;SDS011;44536;47.474;19.056;2022-08-24T04:33:19;9.90;;;4.85;;
58768;SDS011;44536;47.474;19.056;2022-08-24T04:36:22;9.40;;;6.15;;
58768;SDS011;44536;47.474;19.056;2022-08-24T04:39:24;11.75;;;6.55;;
58768;SDS011;44536;47.474;19.056;2022-08-24T04:42:29;9.55;;;5.65;;
58768;SDS011;44536;47.474;19.056;2022-08-24T04:45:38;9.68;;;5.87;;
58768;SDS011;44536;47.474;19.056;2022-08-24T04:48:42;10.40;;;6.43;;
58768;SDS011;44536;47.474;19.056;2022-08-24T04:51:46;9.20;;;5.60;;
58768;SDS011;44536;47.474;19.056;2022-08-24T04:54:49;12.05;;;6.65;;
58768;SDS011;44536;47.474;19.056;2022-08-24T04:57:51;13.43;;;6.93;;
58768;SDS011;44536;47.474;19.056;2022-08-24T05:00:54;12.60;;;6.62;;
58768;SDS011;44536;47.474;19.056;2022-08-24T05:03:57;8.85;;;6.10;;
58768;SDS011;44536;47.474;19.056;2022-08-24T05:06:59;10.63;;;6.57;;
58768;SDS011;44536;47.474;19.056;2022-08-24T05:10:02;10.82;;;6.60;;
58768;SDS011;44536;47.474;19.056;2022-08-24T05:13:10;9.77;;;6.37;;
58768;SDS011;44536;47.474;19.056;2022-08-24T05:16:14;13.45;;;6.68;;
58768;SDS011;44536;47.474;19.056;2022-08-24T05:19:22;10.65;;;6.22;;
58768;SDS011;44536;47.474;19.056;2022-08-24T05:22:24;8.70;;;5.68;;
58768;SDS011;44536;47.474;19.056;2022-08-24T05:25:27;10.48;;;5.60;;
58768;SDS011;44536;47.474;19.056;2022-08-24T05:28:30;9.80;;;6.07;;
58768;SDS011;44536;47.474;19.056;2022-08-24T05:31:32;9.63;;;5.30;;
58768;SDS011;44536;47.474;19.056;2022-08-24T05:34:37;9.82;;;5.50;;
58768;SDS011;44536;47.474;19.056;2022-08-24T05:37:39;11.60;;;6.00;;
58768;SDS011;44536;47.474;19.056;2022-08-24T05:40:45;9.02;;;4.68;;
58768;SDS011;44536;47.474;19.056;2022-08-24T05:43:47;9.40;;;5.27;;
58768;SDS011;44536;47.474;19.056;2022-08-24T05:46:50;10.45;;;6.47;;
58768;SDS011;44536;47.474;19.056;2022-08-24T05:49:52;9.52;;;5.10;;
58768;SDS011;44536;47.474;19.056;2022-08-24T05:52:54;7.90;;;4.62;;
58768;SDS011;44536;47.474;19.056;2022-08-24T05:55:57;8.10;;;4.20;;
58768;SDS011;44536;47.474;19.056;2022-08-24T05:59:03;7.62;;;4.20;;
58768;SDS011;44536;47.474;19.056;2022-08-24T06:02:05;8.48;;;4.57;;
58768;SDS011;44536;47.474;19.056;2022-08-24T06:05:09;7.62;;;4.40;;
58768;SDS011;44536;47.474;19.056;2022-08-24T06:08:12;7.37;;;4.32;;
58768;SDS011;44536;47.474;19.056;2022-08-24T06:11:22;8.35;;;4.45;;
58768;SDS011;44536;47.474;19.056;2022-08-24T06:14:31;6.85;;;4.25;;
58768;SDS011;44536;47.474;19.056;2022-08-24T06:17:36;7.62;;;3.65;;
58768;SDS011;44536;47.474;19.056;2022-08-24T06:20:40;7.12;;;4.18;;
58768;SDS011;44536;47.474;19.056;2022-08-24T06:23:47;8.05;;;3.87;;
58768;SDS011;44536;47.474;19.056;2022-08-24T06:26:52;7.00;;;4.70;;
58768;SDS011;44536;47.474;19.056;2022-08-24T06:30:14;6.97;;;4.22;;
58768;SDS011;44536;47.474;19.056;2022-08-24T06:33:18;8.02;;;4.05;;
58768;SDS011;44536;47.474;19.056;2022-08-24T06:36:23;6.03;;;3.83;;
58768;SDS011;44536;47.474;19.056;2022-08-24T06:39:26;7.85;;;3.80;;
58768;SDS011;44536;47.474;19.056;2022-08-24T06:42:29;8.88;;;4.57;;
58768;SDS011;44536;47.474;19.056;2022-08-24T06:45:33;7.05;;;4.15;;
58768;SDS011;44536;47.474;19.056;2022-08-24T06:54:41;6.97;;;4.25;;
58768;SDS011;44536;47.474;19.056;2022-08-24T06:57:44;6.47;;;3.83;;
58768;SDS011;44536;47.474;19.056;2022-08-24T07:00:53;7.45;;;4.07;;
58768;SDS011;44536;47.474;19.056;2022-08-24T07:03:57;6.32;;;4.10;;
58768;SDS011;44536;47.474;19.056;2022-08-24T07:07:01;8.00;;;4.50;;
58768;SDS011;44536;47.474;19.056;2022-08-24T07:10:04;8.75;;;4.15;;
58768;SDS011;44536;47.474;19.056;2022-08-24T07:13:09;9.88;;;5.18;;
58768;SDS011;44536;47.474;19.056;2022-08-24T07:16:13;7.18;;;3.70;;
58768;SDS011;44536;47.474;19.056;2022-08-24T07:19:20;10.98;;;4.68;;
58768;SDS011;44536;47.474;19.056;2022-08-24T07:25:25;7.25;;;4.10;;
58768;SDS011;44536;47.474;19.056;2022-08-24T07:28:28;8.50;;;4.22;;
58768;SDS011;44536;47.474;19.056;2022-08-24T07:31:36;8.23;;;4.10;;
58768;SDS011;44536;47.474;19.056;2022-08-24T07:34:40;6.93;;;3.80;;
58768;SDS011;44536;47.474;19.056;2022-08-24T07:37:43;7.90;;;4.50;;
58768;SDS011;44536;47.474;19.056;2022-08-24T07:40:45;9.20;;;4.85;;
58768;SDS011;44536;47.474;19.056;2022-08-24T07:44:09;8.90;;;5.00;;
58768;SDS011;44536;47.474;19.056;2022-08-24T07:47:13;7.50;;;4.20;;
58768;SDS011;44536;47.474;19.056;2022-08-24T07:50:36;8.27;;;4.12;;
58768;SDS011;44536;47.474;19.056;2022-08-24T07:53:39;8.95;;;4.97;;
58768;SDS011;44536;47.474;19.056;2022-08-24T07:56:57;7.20;;;3.03;;
58768;SDS011;44536;47.474;19.056;2022-08-24T08:00:01;9.70;;;3.92;;
58768;SDS011;44536;47.474;19.056;2022-08-24T08:03:15;8.30;;;4.40;;
58768;SDS011;44536;47.474;19.056;2022-08-24T08:06:17;8.60;;;4.32;;
58768;SDS011;44536;47.474;19.056;2022-08-24T08:12:23;6.28;;;3.83;;
58768;SDS011;44536;47.474;19.056;2022-08-24T08:15:25;6.90;;;3.85;;
58768;SDS011;44536;47.474;19.056;2022-08-24T08:18:28;6.50;;;3.53;;
58768;SDS011;44536;47.474;19.056;2022-08-24T08:21:32;8.23;;;4.28;;
58768;SDS011;44536;47.474;19.056;2022-08-24T08:24:53;7.03;;;3.85;;
58768;SDS011;44536;47.474;19.056;2022-08-24T08:27:55;7.53;;;3.90;;
58768;SDS011;44536;47.474;19.056;2022-08-24T08:31:14;7.60;;;3.20;;
58768;SDS011;44536;47.474;19.056;2022-08-24T08:34:18;9.68;;;4.18;;
58768;SDS011;44536;47.474;19.056;2022-08-24T08:40:30;5.50;;;2.75;;
58768;SDS011;44536;47.474;19.056;2022-08-24T08:56:41;6.15;;;3.35;;
58768;SDS011;44536;47.474;19.056;2022-08-24T09:00:08;9.85;;;2.97;;
58768;SDS011;44536;47.474;19.056;2022-08-24T09:09:50;8.32;;;3.45;;
58768;SDS011;44536;47.474;19.056;2022-08-24T09:13:33;6.40;;;3.47;;
58768;SDS011;44536;47.474;19.056;2022-08-24T09:20:03;6.07;;;3.78;;
58768;SDS011;44536;47.474;19.056;2022-08-24T09:36:05;6.62;;;3.37;;
58768;SDS011;44536;47.474;19.056;2022-08-24T09:57:24;8.27;;;3.90;;
58768;SDS011;44536;47.474;19.056;2022-08-24T10:01:21;8.10;;;3.95;;
58768;SDS011;44536;47.474;19.056;2022-08-24T10:04:29;7.53;;;3.42;;
58768;SDS011;44536;47.474;19.056;2022-08-24T10:07:49;6.47;;;3.20;;
58768;SDS011;44536;47.474;19.056;2022-08-24T10:21:26;8.30;;;4.97;;
58768;SDS011;44536;47.474;19.056;2022-08-24T10:24:37;7.70;;;4.50;;
58768;SDS011;44536;47.474;19.056;2022-08-24T10:38:21;9.35;;;4.47;;
58768;SDS011;44536;47.474;19.056;2022-08-24T10:52:48;11.18;;;5.95;;
58768;SDS011;44536;47.474;19.056;2022-08-24T10:56:13;10.85;;;7.70;;
58768;SDS011;44536;47.474;19.056;2022-08-24T11:02:44;10.38;;;6.10;;
58768;SDS011;44536;47.474;19.056;2022-08-24T11:05:48;11.00;;;6.87;;
58768;SDS011;44536;47.474;19.056;2022-08-24T11:08:56;11.50;;;9.02;;
58768;SDS011;44536;47.474;19.056;2022-08-24T11:12:01;15.90;;;7.97;;
58768;SDS011;44536;47.474;19.056;2022-08-24T11:15:32;16.15;;;7.53;;
58768;SDS011;44536;47.474;19.056;2022-08-24T11:18:56;12.85;;;6.60;;
58768;SDS011;44536;47.474;19.056;2022-08-24T11:21:59;15.63;;;7.65;;
58768;SDS011;44536;47.474;19.056;2022-08-24T11:25:09;13.93;;;6.53;;
58768;SDS011;44536;47.474;19.056;2022-08-24T11:28:22;10.48;;;6.30;;
58768;SDS011;44536;47.474;19.056;2022-08-24T11:31:32;13.38;;;7.15;;
58768;SDS011;44536;47.474;19.056;2022-08-24T11:34:37;12.93;;;6.95;;
58768;SDS011;44536;47.474;19.056;2022-08-24T11:37:40;11.98;;;6.32;;
58768;SDS011;44536;47.474;19.056;2022-08-24T11:40:47;15.52;;;7.20;;
58768;SDS011;44536;47.474;19.056;2022-08-24T11:50:37;16.50;;;7.90;;
58768;SDS011;44536;47.474;19.056;2022-08-24T11:57:40;14.57;;;7.72;;
58768;SDS011;44536;47.474;19.056;2022-08-24T12:00:54;10.60;;;6.57;;
58768;SDS011;44536;47.474;19.056;2022-08-24T12:18:25;10.13;;;5.28;;
58768;SDS011;44536;47.474;19.056;2022-08-24T12:21:32;16.42;;;5.82;;
58768;SDS011;44536;47.474;19.056;2022-08-24T12:24:38;10.85;;;6.20;;
58768;SDS011;44536;47.474;19.056;2022-08-24T12:27:43;10.43;;;6.18;;
58768;SDS011;44536;47.474;19.056;2022-08-24T12:30:46;9.38;;;5.57;;
58768;SDS011;44536;47.474;19.056;2022-08-24T12:33:51;8.98;;;5.20;;
58768;SDS011;44536;47.474;19.056;2022-08-24T12:40:22;10.00;;;5.75;;
58768;SDS011;44536;47.474;19.056;2022-08-24T12:43:38;9.65;;;5.65;;
58768;SDS011;44536;47.474;19.056;2022-08-24T12:46:50;9.30;;;5.40;;
58768;SDS011;44536;47.474;19.056;2022-08-24T12:50:00;10.93;;;5.53;;
58768;SDS011;44536;47.474;19.056;2022-08-24T12:59:50;9.05;;;5.50;;
58768;SDS011;44536;47.474;19.056;2022-08-24T13:02:58;10.23;;;5.53;;
58768;SDS011;44536;47.474;19.056;2022-08-24T13:06:05;14.35;;;6.97;;
58768;SDS011;44536;47.474;19.056;2022-08-24T13:19:14;23.00;;;10.13;;
58768;SDS011;44536;47.474;19.056;2022-08-24T13:25:40;13.23;;;7.18;;
58768;SDS011;44536;47.474;19.056;2022-08-24T13:28:46;18.27;;;8.95;;
58768;SDS011;44536;47.474;19.056;2022-08-24T13:31:56;11.55;;;8.23;;
58768;SDS011;44536;47.474;19.056;2022-08-24T13:35:28;12.57;;;7.78;;
58768;SDS011;44536;47.474;19.056;2022-08-24T13:45:13;13.35;;;7.85;;
58768;SDS011;44536;47.474;19.056;2022-08-24T13:48:39;13.62;;;8.07;;
58768;SDS011;44536;47.474;19.056;2022-08-24T13:51:48;10.57;;;7.47;;
58768;SDS011;44536;47.474;19.056;2022-08-24T13:55:13;15.68;;;8.82;;
58768;SDS011;44536;47.474;19.056;2022-08-24T13:58:48;13.35;;;8.82;;
58768;SDS011;44536;47.474;19.056;2022-08-24T14:05:23;12.93;;;8.45;;
58768;SDS011;44536;47.474;19.056;2022-08-24T14:12:12;12.00;;;8.55;;
58768;SDS011;44536;47.474;19.056;2022-08-24T14:18:28;14.68;;;8.68;;
58768;SDS011;44536;47.474;19.056;2022-08-24T14:21:44;16.17;;;9.50;;
58768;SDS011;44536;47.474;19.056;2022-08-24T14:31:21;16.62;;;8.80;;
58768;SDS011;44536;47.474;19.056;2022-08-24T14:37:58;14.25;;;9.38;;
58768;SDS011;44536;47.474;19.056;2022-08-24T14:41:16;16.50;;;9.52;;
58768;SDS011;44536;47.474;19.056;2022-08-24T14:58:16;12.02;;;7.72;;
58768;SDS011;44536;47.474;19.056;2022-08-24T15:01:43;13.93;;;9.27;;
58768;SDS011;44536;47.474;19.056;2022-08-24T15:08:01;11.98;;;7.07;;
58768;SDS011;44536;47.474;19.056;2022-08-24T15:11:09;12.13;;;6.97;;
58768;SDS011;44536;47.474;19.056;2022-08-24T15:18:03;12.25;;;7.87;;
58768;SDS011;44536;47.474;19.056;2022-08-24T15:34:06;11.55;;;7.35;;
58768;SDS011;44536;47.474;19.056;2022-08-24T15:37:08;13.40;;;8.00;;
58768;SDS011;44536;47.474;19.056;2022-08-24T15:40:30;9.32;;;5.03;;
58768;SDS011;44536;47.474;19.056;2022-08-24T15:43:34;11.88;;;6.22;;
58768;SDS011;44536;47.474;19.056;2022-08-24T15:46:46;12.35;;;4.70;;
58768;SDS011;44536;47.474;19.056;2022-08-24T15:49:54;10.90;;;5.18;;
58768;SDS011;44536;47.474;19.056;2022-08-24T15:53:00;8.55;;;5.15;;
58768;SDS011;44536;47.474;19.056;2022-08-24T15:56:22;7.95;;;4.95;;
58768;SDS011;44536;47.474;19.056;2022-08-24T16:02:31;8.43;;;5.07;;
58768;SDS011;44536;47.474;19.056;2022-08-24T16:05:37;9.48;;;4.70;;
58768;SDS011;44536;47.474;19.056;2022-08-24T16:12:20;10.35;;;5.18;;
58768;SDS011;44536;47.474;19.056;2022-08-24T16:15:24;9.88;;;5.40;;
58768;SDS011;44536;47.474;19.056;2022-08-24T16:18:39;11.33;;;6.70;;
58768;SDS011;44536;47.474;19.056;2022-08-24T16:21:49;9.95;;;6.68;;
58768;SDS011;44536;47.474;19.056;2022-08-24T16:28:49;8.88;;;4.85;;
58768;SDS011;44536;47.474;19.056;2022-08-24T16:31:52;11.50;;;6.40;;
58768;SDS011;44536;47.474;19.056;2022-08-24T16:38:08;9.33;;;5.50;;
58768;SDS011;44536;47.474;19.056;2022-08-24T16:41:10;12.90;;;6.20;;
58768;SDS011;44536;47.474;19.056;2022-08-24T16:47:16;10.07;;;5.00;;
58768;SDS011;44536;47.474;19.056;2022-08-24T16:50:19;15.13;;;5.25;;
58768;SDS011;44536;47.474;19.056;2022-08-24T16:53:22;11.68;;;5.22;;
58768;SDS011;44536;47.474;19.056;2022-08-24T16:56:25;10.48;;;5.20;;
58768;SDS011;44536;47.474;19.056;2022-08-24T17:02:33;8.40;;;5.22;;
58768;SDS011;44536;47.474;19.056;2022-08-24T17:05:36;10.82;;;5.80;;
58768;SDS011;44536;47.474;19.056;2022-08-24T17:08:40;9.57;;;5.50;;
58768;SDS011;44536;47.474;19.056;2022-08-24T17:11:42;10.40;;;4.97;;
58768;SDS011;44536;47.474;19.056;2022-08-24T17:14:45;9.88;;;6.30;;
58768;SDS011;44536;47.474;19.056;2022-08-24T17:17:54;9.52;;;5.50;;
58768;SDS011;44536;47.474;19.056;2022-08-24T17:21:02;10.30;;;5.45;;
58768;SDS011;44536;47.474;19.056;2022-08-24T17:24:07;11.10;;;6.50;;
58768;SDS011;44536;47.474;19.056;2022-08-24T17:27:11;11.88;;;6.15;;
58768;SDS011;44536;47.474;19.056;2022-08-24T17:30:14;10.85;;;5.22;;
58768;SDS011;44536;47.474;19.056;2022-08-24T17:33:21;7.78;;;4.50;;
58768;SDS011;44536;47.474;19.056;2022-08-24T17:36:23;8.67;;;5.40;;
58768;SDS011;44536;47.474;19.056;2022-08-24T17:39:26;9.63;;;6.03;;
58768;SDS011;44536;47.474;19.056;2022-08-24T17:42:29;9.67;;;4.47;;
58768;SDS011;44536;47.474;19.056;2022-08-24T17:45:51;13.20;;;5.10;;
58768;SDS011;44536;47.474;19.056;2022-08-24T17:48:55;14.02;;;5.62;;
58768;SDS011;44536;47.474;19.056;2022-08-24T17:51:58;9.57;;;4.20;;
58768;SDS011;44536;47.474;19.056;2022-08-24T17:55:00;8.07;;;4.97;;
58768;SDS011;44536;47.474;19.056;2022-08-24T17:58:04;8.80;;;5.07;;
58768;SDS011;44536;47.474;19.056;2022-08-24T18:01:07;10.75;;;4.95;;
58768;SDS011;44536;47.474;19.056;2022-08-24T18:04:09;12.40;;;4.57;;
58768;SDS011;44536;47.474;19.056;2022-08-24T18:07:12;12.57;;;4.62;;
58768;SDS011;44536;47.474;19.056;2022-08-24T18:10:38;9.32;;;5.47;;
58768;SDS011;44536;47.474;19.056;2022-08-24T18:13:40;9.20;;;4.57;;
58768;SDS011;44536;47.474;19.056;2022-08-24T18:16:43;8.48;;;4.55;;
58768;SDS011;44536;47.474;19.056;2022-08-24T18:19:57;10.15;;;5.37;;
58768;SDS011;44536;47.474;19.056;2022-08-24T18:23:00;10.25;;;4.93;;
58768;SDS011;44536;47.474;19.056;2022-08-24T18:26:03;7.25;;;3.60;;
58768;SDS011;44536;47.474;19.056;2022-08-24T18:29:08;9.20;;;4.53;;
58768;SDS011;44536;47.474;19.056;2022-08-24T18:32:14;8.98;;;5.12;;
58768;SDS011;44536;47.474;19.056;2022-08-24T18:35:18;12.15;;;4.47;;
58768;SDS011;44536;47.474;19.056;2022-08-24T18:38:20;17.60;;;5.22;;
58768;SDS011;44536;47.474;19.056;2022-08-24T18:41:24;8.70;;;4.15;;
58768;SDS011;44536;47.474;19.056;2022-08-24T18:44:32;9.85;;;4.97;;
58768;SDS011;44536;47.474;19.056;2022-08-24T18:47:36;9.05;;;4.90;;
58768;SDS011;44536;47.474;19.056;2022-08-24T18:50:39;8.48;;;5.00;;
58768;SDS011;44536;47.474;19.056;2022-08-24T18:53:43;9.85;;;5.50;;
58768;SDS011;44536;47.474;19.056;2022-08-24T18:56:45;12.60;;;5.37;;
58768;SDS011;44536;47.474;19.056;2022-08-24T19:02:50;7.65;;;4.82;;
58768;SDS011;44536;47.474;19.056;2022-08-24T19:05:53;8.90;;;5.37;;
58768;SDS011;44536;47.474;19.056;2022-08-24T19:08:56;7.93;;;4.68;;
58768;SDS011;44536;47.474;19.056;2022-08-24T19:11:58;11.80;;;5.83;;
58768;SDS011;44536;47.474;19.056;2022-08-24T19:15:01;15.05;;;6.53;;
58768;SDS011;44536;47.474;19.056;2022-08-24T19:18:04;8.52;;;5.20;;
58768;SDS011;44536;47.474;19.056;2022-08-24T19:21:06;10.63;;;5.62;;
58768;SDS011;44536;47.474;19.056;2022-08-24T19:24:09;8.53;;;4.63;;
58768;SDS011;44536;47.474;19.056;2022-08-24T19:27:11;9.45;;;4.90;;
58768;SDS011;44536;47.474;19.056;2022-08-24T19:30:14;14.87;;;5.97;;
58768;SDS011;44536;47.474;19.056;2022-08-24T19:33:24;8.27;;;4.78;;
58768;SDS011;44536;47.474;19.056;2022-08-24T19:36:29;11.55;;;5.62;;
58768;SDS011;44536;47.474;19.056;2022-08-24T19:39:33;8.88;;;6.10;;
58768;SDS011;44536;47.474;19.056;2022-08-24T19:42:35;10.93;;;5.27;;
58768;SDS011;44536;47.474;19.056;2022-08-24T19:45:37;12.55;;;5.53;;
58768;SDS011;44536;47.474;19.056;2022-08-24T19:48:58;12.20;;;5.43;;
58768;SDS011;44536;47.474;19.056;2022-08-24T19:52:01;10.65;;;5.55;;
58768;SDS011;44536;47.474;19.056;2022-08-24T19:55:05;9.85;;;5.32;;
58768;SDS011;44536;47.474;19.056;2022-08-24T19:58:14;10.45;;;6.20;;
58768;SDS011;44536;47.474;19.056;2022-08-24T20:01:20;8.70;;;4.65;;
58768;SDS011;44536;47.474;19.056;2022-08-24T20:04:25;13.75;;;6.10;;
58768;SDS011;44536;47.474;19.056;2022-08-24T20:07:27;11.75;;;5.78;;
58768;SDS011;44536;47.474;19.056;2022-08-24T20:10:30;11.75;;;5.62;;
58768;SDS011;44536;47.474;19.056;2022-08-24T20:13:33;13.10;;;6.28;;
58768;SDS011;44536;47.474;19.056;2022-08-24T20:16:37;13.70;;;6.00;;
58768;SDS011;44536;47.474;19.056;2022-08-24T20:19:43;10.48;;;5.50;;
58768;SDS011;44536;47.474;19.056;2022-08-24T20:22:45;9.03;;;5.93;;
58768;SDS011;44536;47.474;19.056;2022-08-24T20:25:48;11.20;;;5.62;;
58768;SDS011;44536;47.474;19.056;2022-08-24T20:28:50;12.82;;;6.72;;
58768;SDS011;44536;47.474;19.056;2022-08-24T20:31:53;9.20;;;5.12;;
58768;SDS011;44536;47.474;19.056;2022-08-24T20:34:59;10.30;;;5.00;;
58768;SDS011;44536;47.474;19.056;2022-08-24T20:38:02;10.32;;;5.03;;
58768;SDS011;44536;47.474;19.056;2022-08-24T20:41:05;7.80;;;5.03;;
58768;SDS011;44536;47.474;19.056;2022-08-24T20:44:07;10.85;;;5.37;;
58768;SDS011;44536;47.474;19.056;2022-08-24T20:47:11;10.18;;;5.18;;
58768;SDS011;44536;47.474;19.056;2022-08-24T20:50:14;12.48;;;5.85;;
58768;SDS011;44536;47.474;19.056;2022-08-24T20:53:24;8.32;;;5.82;;
58768;SDS011;44536;47.474;19.056;2022-08-24T20:56:28;11.73;;;5.37;;
58768;SDS011;44536;47.474;19.056;2022-08-24T20:59:33;10.63;;;6.40;;
58768;SDS011;44536;47.474;19.056;2022-08-24T21:02:36;12.13;;;6.47;;
58768;SDS011;44536;47.474;19.056;2022-08-24T21:05:38;10.88;;;7.43;;
58768;SDS011;44536;47.474;19.056;2022-08-24T21:08:41;12.63;;;5.85;;
58768;SDS011;44536;47.474;19.056;2022-08-24T21:11:45;13.48;;;6.97;;
58768;SDS011;44536;47.474;19.056;2022-08-24T21:14:47;7.93;;;4.97;;
58768;SDS011;44536;47.474;19.056;2022-08-24T21:17:52;11.20;;;6.00;;
58768;SDS011;44536;47.474;19.056;2022-08-24T21:20:54;11.00;;;6.07;;
58768;SDS011;44536;47.474;19.056;2022-08-24T21:24:05;11.95;;;6.20;;
58768;SDS011;44536;47.474;19.056;2022-08-24T21:27:08;10.02;;;6.55;;
58768;SDS011;44536;47.474;19.056;2022-08-24T21:30:13;9.10;;;5.15;;
58768;SDS011;44536;47.474;19.056;2022-08-24T21:33:18;10.75;;;6.22;;
58768;SDS011;44536;47.474;19.056;2022-08-24T21:36:40;12.85;;;7.00;;
58768;SDS011;44536;47.474;19.056;2022-08-24T21:39:43;12.50;;;5.20;;
58768;SDS011;44536;47.474;19.056;2022-08-24T21:42:48;13.77;;;6.18;;
58768;SDS011;44536;47.474;19.056;2022-08-24T21:45:50;11.73;;;5.80;;
58768;SDS011;44536;47.474;19.056;2022-08-24T21:48:53;10.18;;;6.15;;
58768;SDS011;44536;47.474;19.056;2022-08-24T21:51:55;10.23;;;6.70;;
58768;SDS011;44536;47.474;19.056;2022-08-24T21:54:57;10.07;;;5.43;;
58768;SDS011;44536;47.474;19.056;2022-08-24T21:58:00;33.47;;;8.82;;
58768;SDS011;44536;47.474;19.056;2022-08-24T22:01:02;10.60;;;7.10;;
58768;SDS011;44536;47.474;19.056;2022-08-24T22:04:05;12.03;;;6.47;;
58768;SDS011;44536;47.474;19.056;2022-08-24T22:07:08;13.27;;;6.47;;
58768;SDS011;44536;47.474;19.056;2022-08-24T22:10:11;18.45;;;7.95;;
58768;SDS011;44536;47.474;19.056;2022-08-24T22:13:14;12.40;;;7.35;;
58768;SDS011;44536;47.474;19.056;2022-08-24T22:16:17;13.60;;;7.78;;
58768;SDS011;44536;47.474;19.056;2022-08-24T22:19:20;11.90;;;6.68;;